sensor_id;sensor_type;location;lat;lon;timestamp;P1;durP1;ratioP1;P2;durP2;ratioP2
19207;SDS011;9737;59.466;18.036;2023-03-30T00:02:26;12.60;;;6.67;;
19207;SDS011;9737;59.466;18.036;2023-03-30T00:04:56;10.00;;;6.10;;
19207;SDS011;9737;59.466;18.036;2023-03-30T00:07:28;10.67;;;6.23;;
19207;SDS011;9737;59.466;18.036;2023-03-30T00:09:56;10.13;;;6.13;;
19207;SDS011;9737;59.466;18.036;2023-03-30T00:12:30;10.03;;;6.43;;
19207;SDS011;9737;59.466;18.036;2023-03-30T00:14:58;9.73;;;6.50;;
19207;SDS011;9737;59.466;18.036;2023-03-30T00:17:26;11.17;;;6.70;;
19207;SDS011;9737;59.466;18.036;2023-03-30T00:19:53;8.93;;;5.80;;
19207;SDS011;9737;59.466;18.036;2023-03-30T00:22:22;7.87;;;5.70;;
19207;SDS011;9737;59.466;18.036;2023-03-30T00:24:50;15.30;;;6.63;;
19207;SDS011;9737;59.466;18.036;2023-03-30T00:27:18;8.60;;;5.73;;
19207;SDS011;9737;59.466;18.036;2023-03-30T00:29:47;10.87;;;6.50;;
19207;SDS011;9737;59.466;18.036;2023-03-30T00:32:15;10.03;;;6.17;;
19207;SDS011;9737;59.466;18.036;2023-03-30T00:34:43;12.20;;;6.73;;
19207;SDS011;9737;59.466;18.036;2023-03-30T00:37:11;9.73;;;6.33;;
19207;SDS011;9737;59.466;18.036;2023-03-30T00:39:39;8.70;;;6.10;;
19207;SDS011;9737;59.466;18.036;2023-03-30T00:42:09;9.63;;;6.37;;
19207;SDS011;9737;59.466;18.036;2023-03-30T00:47:48;12.97;;;6.47;;
19207;SDS011;9737;59.466;18.036;2023-03-30T00:50:19;11.30;;;6.50;;
19207;SDS011;9737;59.466;18.036;2023-03-30T00:52:50;9.93;;;6.17;;
19207;SDS011;9737;59.466;18.036;2023-03-30T00:55:22;10.07;;;6.23;;
19207;SDS011;9737;59.466;18.036;2023-03-30T00:57:54;10.50;;;5.90;;
19207;SDS011;9737;59.466;18.036;2023-03-30T01:00:23;8.23;;;5.83;;
19207;SDS011;9737;59.466;18.036;2023-03-30T01:02:53;10.23;;;5.23;;
19207;SDS011;9737;59.466;18.036;2023-03-30T01:05:26;10.50;;;5.93;;
19207;SDS011;9737;59.466;18.036;2023-03-30T01:07:56;9.07;;;6.13;;
19207;SDS011;9737;59.466;18.036;2023-03-30T01:10:25;8.17;;;5.87;;
19207;SDS011;9737;59.466;18.036;2023-03-30T01:12:53;9.03;;;5.77;;
19207;SDS011;9737;59.466;18.036;2023-03-30T01:15:21;7.13;;;5.67;;
19207;SDS011;9737;59.466;18.036;2023-03-30T01:17:56;9.40;;;5.60;;
19207;SDS011;9737;59.466;18.036;2023-03-30T01:27:10;10.87;;;6.07;;
19207;SDS011;9737;59.466;18.036;2023-03-30T01:29:56;11.67;;;6.17;;
19207;SDS011;9737;59.466;18.036;2023-03-30T01:35:42;10.77;;;5.93;;
19207;SDS011;9737;59.466;18.036;2023-03-30T01:41:41;7.57;;;5.53;;
19207;SDS011;9737;59.466;18.036;2023-03-30T01:44:22;7.93;;;5.57;;
19207;SDS011;9737;59.466;18.036;2023-03-30T01:46:58;8.07;;;5.80;;
19207;SDS011;9737;59.466;18.036;2023-03-30T01:49:34;7.07;;;5.47;;
19207;SDS011;9737;59.466;18.036;2023-03-30T01:52:10;7.23;;;5.10;;
19207;SDS011;9737;59.466;18.036;2023-03-30T01:54:44;8.10;;;5.37;;
19207;SDS011;9737;59.466;18.036;2023-03-30T01:57:16;6.87;;;5.40;;
19207;SDS011;9737;59.466;18.036;2023-03-30T01:59:50;7.87;;;5.57;;
19207;SDS011;9737;59.466;18.036;2023-03-30T02:02:22;9.07;;;5.70;;
19207;SDS011;9737;59.466;18.036;2023-03-30T02:04:53;9.77;;;5.53;;
19207;SDS011;9737;59.466;18.036;2023-03-30T02:07:25;7.77;;;5.20;;
19207;SDS011;9737;59.466;18.036;2023-03-30T02:09:59;7.43;;;5.63;;
19207;SDS011;9737;59.466;18.036;2023-03-30T02:12:31;7.77;;;5.93;;
19207;SDS011;9737;59.466;18.036;2023-03-30T02:15:00;8.50;;;5.47;;
19207;SDS011;9737;59.466;18.036;2023-03-30T02:17:33;6.23;;;5.60;;
19207;SDS011;9737;59.466;18.036;2023-03-30T02:20:04;7.47;;;5.83;;
19207;SDS011;9737;59.466;18.036;2023-03-30T02:22:36;7.87;;;5.20;;
19207;SDS011;9737;59.466;18.036;2023-03-30T02:25:05;9.67;;;5.30;;
19207;SDS011;9737;59.466;18.036;2023-03-30T02:27:34;7.43;;;5.07;;
19207;SDS011;9737;59.466;18.036;2023-03-30T02:30:04;9.57;;;5.47;;
19207;SDS011;9737;59.466;18.036;2023-03-30T02:32:36;8.57;;;5.60;;
19207;SDS011;9737;59.466;18.036;2023-03-30T02:35:16;7.80;;;5.33;;
19207;SDS011;9737;59.466;18.036;2023-03-30T02:38:01;6.87;;;5.07;;
19207;SDS011;9737;59.466;18.036;2023-03-30T02:41:06;7.33;;;5.27;;
19207;SDS011;9737;59.466;18.036;2023-03-30T02:43:46;10.17;;;5.10;;
19207;SDS011;9737;59.466;18.036;2023-03-30T02:46:25;7.60;;;5.50;;
19207;SDS011;9737;59.466;18.036;2023-03-30T02:49:06;7.07;;;5.33;;
19207;SDS011;9737;59.466;18.036;2023-03-30T02:51:43;7.20;;;5.37;;
19207;SDS011;9737;59.466;18.036;2023-03-30T02:54:18;8.00;;;5.57;;
19207;SDS011;9737;59.466;18.036;2023-03-30T02:56:54;7.93;;;5.30;;
19207;SDS011;9737;59.466;18.036;2023-03-30T02:59:34;7.83;;;5.00;;
19207;SDS011;9737;59.466;18.036;2023-03-30T03:02:09;7.37;;;5.20;;
19207;SDS011;9737;59.466;18.036;2023-03-30T03:04:41;7.50;;;5.37;;
19207;SDS011;9737;59.466;18.036;2023-03-30T03:07:11;6.90;;;5.60;;
19207;SDS011;9737;59.466;18.036;2023-03-30T03:09:40;8.20;;;5.40;;
19207;SDS011;9737;59.466;18.036;2023-03-30T03:12:08;7.30;;;5.40;;
19207;SDS011;9737;59.466;18.036;2023-03-30T03:14:38;12.43;;;5.60;;
19207;SDS011;9737;59.466;18.036;2023-03-30T03:17:07;8.20;;;5.60;;
19207;SDS011;9737;59.466;18.036;2023-03-30T03:19:35;7.70;;;5.20;;
19207;SDS011;9737;59.466;18.036;2023-03-30T03:22:03;7.73;;;5.73;;
19207;SDS011;9737;59.466;18.036;2023-03-30T03:24:31;8.23;;;5.50;;
19207;SDS011;9737;59.466;18.036;2023-03-30T03:27:04;7.50;;;4.90;;
19207;SDS011;9737;59.466;18.036;2023-03-30T03:29:32;9.17;;;5.33;;
19207;SDS011;9737;59.466;18.036;2023-03-30T03:32:03;6.97;;;5.50;;
19207;SDS011;9737;59.466;18.036;2023-03-30T03:34:31;7.27;;;5.30;;
19207;SDS011;9737;59.466;18.036;2023-03-30T03:36:59;8.40;;;5.60;;
19207;SDS011;9737;59.466;18.036;2023-03-30T03:39:27;7.07;;;5.60;;
19207;SDS011;9737;59.466;18.036;2023-03-30T03:41:56;10.10;;;5.73;;
19207;SDS011;9737;59.466;18.036;2023-03-30T03:44:24;8.83;;;5.77;;
19207;SDS011;9737;59.466;18.036;2023-03-30T03:46:52;7.17;;;5.80;;
19207;SDS011;9737;59.466;18.036;2023-03-30T03:49:22;8.23;;;5.00;;
19207;SDS011;9737;59.466;18.036;2023-03-30T03:51:52;6.53;;;5.37;;
19207;SDS011;9737;59.466;18.036;2023-03-30T03:54:20;8.40;;;5.60;;
19207;SDS011;9737;59.466;18.036;2023-03-30T03:56:48;7.30;;;5.70;;
19207;SDS011;9737;59.466;18.036;2023-03-30T03:59:17;10.90;;;5.37;;
19207;SDS011;9737;59.466;18.036;2023-03-30T04:01:45;8.53;;;5.63;;
19207;SDS011;9737;59.466;18.036;2023-03-30T04:04:14;7.70;;;5.43;;
19207;SDS011;9737;59.466;18.036;2023-03-30T04:06:43;7.53;;;5.33;;
19207;SDS011;9737;59.466;18.036;2023-03-30T04:09:11;9.27;;;5.57;;
19207;SDS011;9737;59.466;18.036;2023-03-30T04:11:39;7.43;;;5.20;;
19207;SDS011;9737;59.466;18.036;2023-03-30T04:14:08;7.80;;;5.63;;
19207;SDS011;9737;59.466;18.036;2023-03-30T04:16:36;7.23;;;5.83;;
19207;SDS011;9737;59.466;18.036;2023-03-30T04:19:04;11.27;;;5.60;;
19207;SDS011;9737;59.466;18.036;2023-03-30T04:21:34;8.60;;;5.37;;
19207;SDS011;9737;59.466;18.036;2023-03-30T04:24:03;8.97;;;5.50;;
19207;SDS011;9737;59.466;18.036;2023-03-30T04:26:31;7.30;;;5.57;;
19207;SDS011;9737;59.466;18.036;2023-03-30T04:28:59;9.70;;;6.00;;
19207;SDS011;9737;59.466;18.036;2023-03-30T04:31:30;9.20;;;5.60;;
19207;SDS011;9737;59.466;18.036;2023-03-30T04:34:00;11.23;;;5.53;;
19207;SDS011;9737;59.466;18.036;2023-03-30T04:36:30;8.07;;;5.47;;
19207;SDS011;9737;59.466;18.036;2023-03-30T04:38:58;7.13;;;5.30;;
19207;SDS011;9737;59.466;18.036;2023-03-30T04:41:28;10.63;;;5.53;;
19207;SDS011;9737;59.466;18.036;2023-03-30T04:43:59;7.13;;;5.63;;
19207;SDS011;9737;59.466;18.036;2023-03-30T04:46:28;6.57;;;5.20;;
19207;SDS011;9737;59.466;18.036;2023-03-30T04:48:56;7.57;;;5.33;;
19207;SDS011;9737;59.466;18.036;2023-03-30T04:51:25;10.67;;;5.87;;
19207;SDS011;9737;59.466;18.036;2023-03-30T04:53:53;10.53;;;6.17;;
19207;SDS011;9737;59.466;18.036;2023-03-30T04:56:21;10.00;;;6.00;;
19207;SDS011;9737;59.466;18.036;2023-03-30T04:58:51;11.63;;;6.13;;
19207;SDS011;9737;59.466;18.036;2023-03-30T05:01:19;9.17;;;6.60;;
19207;SDS011;9737;59.466;18.036;2023-03-30T05:03:48;10.93;;;6.70;;
19207;SDS011;9737;59.466;18.036;2023-03-30T05:06:16;10.63;;;6.53;;
19207;SDS011;9737;59.466;18.036;2023-03-30T05:08:44;10.27;;;6.03;;
19207;SDS011;9737;59.466;18.036;2023-03-30T05:11:12;8.53;;;6.07;;
19207;SDS011;9737;59.466;18.036;2023-03-30T05:13:40;8.33;;;5.87;;
19207;SDS011;9737;59.466;18.036;2023-03-30T05:16:09;10.87;;;5.60;;
19207;SDS011;9737;59.466;18.036;2023-03-30T05:18:37;7.97;;;5.90;;
19207;SDS011;9737;59.466;18.036;2023-03-30T05:21:06;11.60;;;5.97;;
19207;SDS011;9737;59.466;18.036;2023-03-30T05:23:34;7.93;;;5.60;;
19207;SDS011;9737;59.466;18.036;2023-03-30T05:26:02;12.07;;;6.67;;
19207;SDS011;9737;59.466;18.036;2023-03-30T05:28:32;10.60;;;6.57;;
19207;SDS011;9737;59.466;18.036;2023-03-30T05:31:01;14.43;;;6.83;;
19207;SDS011;9737;59.466;18.036;2023-03-30T05:33:30;12.30;;;6.93;;
19207;SDS011;9737;59.466;18.036;2023-03-30T05:35:58;12.90;;;7.13;;
19207;SDS011;9737;59.466;18.036;2023-03-30T05:38:27;12.83;;;6.87;;
19207;SDS011;9737;59.466;18.036;2023-03-30T05:40:55;15.30;;;6.77;;
19207;SDS011;9737;59.466;18.036;2023-03-30T05:43:23;13.77;;;6.77;;
19207;SDS011;9737;59.466;18.036;2023-03-30T05:45:52;10.00;;;5.70;;
19207;SDS011;9737;59.466;18.036;2023-03-30T05:48:20;11.70;;;6.50;;
19207;SDS011;9737;59.466;18.036;2023-03-30T05:50:49;7.70;;;6.00;;
19207;SDS011;9737;59.466;18.036;2023-03-30T05:53:17;12.00;;;5.73;;
19207;SDS011;9737;59.466;18.036;2023-03-30T05:55:45;8.87;;;4.87;;
19207;SDS011;9737;59.466;18.036;2023-03-30T05:58:14;7.10;;;5.03;;
19207;SDS011;9737;59.466;18.036;2023-03-30T06:00:43;7.87;;;4.43;;
19207;SDS011;9737;59.466;18.036;2023-03-30T06:03:14;8.10;;;4.03;;
19207;SDS011;9737;59.466;18.036;2023-03-30T06:05:42;7.38;;;4.22;;
19207;SDS011;9737;59.466;18.036;2023-03-30T06:08:12;9.95;;;3.78;;
19207;SDS011;9737;59.466;18.036;2023-03-30T06:10:50;4.13;;;3.40;;
19207;SDS011;9737;59.466;18.036;2023-03-30T06:13:19;6.60;;;3.30;;
19207;SDS011;9737;59.466;18.036;2023-03-30T06:15:47;5.97;;;3.90;;
19207;SDS011;9737;59.466;18.036;2023-03-30T06:18:15;5.40;;;3.53;;
19207;SDS011;9737;59.466;18.036;2023-03-30T06:20:45;4.97;;;3.28;;
19207;SDS011;9737;59.466;18.036;2023-03-30T06:23:15;4.25;;;3.05;;
19207;SDS011;9737;59.466;18.036;2023-03-30T06:25:47;7.63;;;3.30;;
19207;SDS011;9737;59.466;18.036;2023-03-30T06:28:18;5.22;;;3.42;;
19207;SDS011;9737;59.466;18.036;2023-03-30T06:30:47;8.15;;;3.72;;
19207;SDS011;9737;59.466;18.036;2023-03-30T06:33:15;8.55;;;3.50;;
19207;SDS011;9737;59.466;18.036;2023-03-30T06:35:43;5.60;;;3.28;;
19207;SDS011;9737;59.466;18.036;2023-03-30T06:38:12;4.97;;;3.25;;
19207;SDS011;9737;59.466;18.036;2023-03-30T06:40:43;8.15;;;3.28;;
19207;SDS011;9737;59.466;18.036;2023-03-30T06:43:12;6.30;;;3.80;;
19207;SDS011;9737;59.466;18.036;2023-03-30T06:45:47;6.25;;;3.63;;
19207;SDS011;9737;59.466;18.036;2023-03-30T06:48:16;7.43;;;3.65;;
19207;SDS011;9737;59.466;18.036;2023-03-30T06:50:45;7.88;;;3.72;;
19207;SDS011;9737;59.466;18.036;2023-03-30T06:53:14;7.95;;;3.70;;
19207;SDS011;9737;59.466;18.036;2023-03-30T06:55:44;7.45;;;3.70;;
19207;SDS011;9737;59.466;18.036;2023-03-30T06:58:12;8.10;;;3.83;;
19207;SDS011;9737;59.466;18.036;2023-03-30T07:00:40;8.18;;;3.00;;
19207;SDS011;9737;59.466;18.036;2023-03-30T07:03:08;5.30;;;3.20;;
19207;SDS011;9737;59.466;18.036;2023-03-30T07:05:37;6.55;;;3.17;;
19207;SDS011;9737;59.466;18.036;2023-03-30T07:08:06;4.07;;;2.78;;
19207;SDS011;9737;59.466;18.036;2023-03-30T07:10:38;4.75;;;2.92;;
19207;SDS011;9737;59.466;18.036;2023-03-30T07:13:07;7.45;;;2.60;;
19207;SDS011;9737;59.466;18.036;2023-03-30T07:15:36;7.65;;;2.70;;
19207;SDS011;9737;59.466;18.036;2023-03-30T07:18:04;4.88;;;2.75;;
19207;SDS011;9737;59.466;18.036;2023-03-30T07:20:32;3.33;;;2.40;;
19207;SDS011;9737;59.466;18.036;2023-03-30T07:23:01;3.20;;;2.50;;
19207;SDS011;9737;59.466;18.036;2023-03-30T07:25:29;3.97;;;2.45;;
19207;SDS011;9737;59.466;18.036;2023-03-30T07:27:58;5.82;;;2.13;;
19207;SDS011;9737;59.466;18.036;2023-03-30T07:30:29;5.78;;;2.47;;
19207;SDS011;9737;59.466;18.036;2023-03-30T07:32:57;3.92;;;2.15;;
19207;SDS011;9737;59.466;18.036;2023-03-30T07:35:32;4.55;;;2.58;;
19207;SDS011;9737;59.466;18.036;2023-03-30T07:38:00;5.47;;;2.20;;
19207;SDS011;9737;59.466;18.036;2023-03-30T07:40:29;3.80;;;2.00;;
19207;SDS011;9737;59.466;18.036;2023-03-30T07:42:57;4.25;;;2.10;;
19207;SDS011;9737;59.466;18.036;2023-03-30T07:45:25;4.20;;;2.20;;
19207;SDS011;9737;59.466;18.036;2023-03-30T07:47:54;3.92;;;1.90;;
19207;SDS011;9737;59.466;18.036;2023-03-30T07:50:22;5.13;;;2.45;;
19207;SDS011;9737;59.466;18.036;2023-03-30T07:52:51;3.50;;;2.33;;
19207;SDS011;9737;59.466;18.036;2023-03-30T07:55:19;3.35;;;1.90;;
19207;SDS011;9737;59.466;18.036;2023-03-30T07:57:47;4.35;;;1.80;;
19207;SDS011;9737;59.466;18.036;2023-03-30T08:00:15;4.25;;;1.92;;
19207;SDS011;9737;59.466;18.036;2023-03-30T08:02:44;3.33;;;2.20;;
19207;SDS011;9737;59.466;18.036;2023-03-30T08:05:13;3.13;;;1.83;;
19207;SDS011;9737;59.466;18.036;2023-03-30T08:07:43;2.05;;;1.50;;
19207;SDS011;9737;59.466;18.036;2023-03-30T08:10:11;3.85;;;1.90;;
19207;SDS011;9737;59.466;18.036;2023-03-30T08:12:39;2.05;;;1.50;;
19207;SDS011;9737;59.466;18.036;2023-03-30T08:15:08;4.78;;;1.52;;
19207;SDS011;9737;59.466;18.036;2023-03-30T08:17:36;1.30;;;1.20;;
19207;SDS011;9737;59.466;18.036;2023-03-30T08:20:05;6.75;;;3.15;;
19207;SDS011;9737;59.466;18.036;2023-03-30T08:22:38;3.35;;;1.33;;
19207;SDS011;9737;59.466;18.036;2023-03-30T08:25:07;2.10;;;1.50;;
19207;SDS011;9737;59.466;18.036;2023-03-30T08:27:35;3.05;;;1.60;;
19207;SDS011;9737;59.466;18.036;2023-03-30T08:30:03;1.58;;;1.48;;
19207;SDS011;9737;59.466;18.036;2023-03-30T08:32:32;1.50;;;1.40;;
19207;SDS011;9737;59.466;18.036;2023-03-30T08:35:00;1.75;;;1.50;;
19207;SDS011;9737;59.466;18.036;2023-03-30T08:37:28;3.25;;;1.60;;
19207;SDS011;9737;59.466;18.036;2023-03-30T08:39:58;4.45;;;1.40;;
19207;SDS011;9737;59.466;18.036;2023-03-30T08:42:35;3.20;;;2.13;;
19207;SDS011;9737;59.466;18.036;2023-03-30T08:45:13;2.25;;;1.40;;
19207;SDS011;9737;59.466;18.036;2023-03-30T08:47:42;4.82;;;1.67;;
19207;SDS011;9737;59.466;18.036;2023-03-30T08:50:15;3.15;;;1.65;;
19207;SDS011;9737;59.466;18.036;2023-03-30T08:52:45;1.80;;;1.42;;
19207;SDS011;9737;59.466;18.036;2023-03-30T08:55:20;2.45;;;1.63;;
19207;SDS011;9737;59.466;18.036;2023-03-30T08:57:50;2.80;;;1.60;;
19207;SDS011;9737;59.466;18.036;2023-03-30T09:00:29;2.90;;;1.58;;
19207;SDS011;9737;59.466;18.036;2023-03-30T09:03:06;1.95;;;1.52;;
19207;SDS011;9737;59.466;18.036;2023-03-30T09:05:43;2.08;;;1.70;;
19207;SDS011;9737;59.466;18.036;2023-03-30T09:08:17;1.40;;;1.30;;
19207;SDS011;9737;59.466;18.036;2023-03-30T09:10:57;3.00;;;1.50;;
19207;SDS011;9737;59.466;18.036;2023-03-30T09:13:28;1.83;;;1.35;;
19207;SDS011;9737;59.466;18.036;2023-03-30T09:16:00;1.65;;;1.27;;
19207;SDS011;9737;59.466;18.036;2023-03-30T09:18:34;4.18;;;1.50;;
19207;SDS011;9737;59.466;18.036;2023-03-30T09:21:04;3.83;;;1.73;;
19207;SDS011;9737;59.466;18.036;2023-03-30T09:23:33;3.08;;;1.50;;
19207;SDS011;9737;59.466;18.036;2023-03-30T09:26:06;2.05;;;1.20;;
19207;SDS011;9737;59.466;18.036;2023-03-30T09:28:44;3.85;;;1.30;;
19207;SDS011;9737;59.466;18.036;2023-03-30T09:31:17;1.30;;;1.10;;
19207;SDS011;9737;59.466;18.036;2023-03-30T09:33:51;1.95;;;1.30;;
19207;SDS011;9737;59.466;18.036;2023-03-30T09:36:28;1.45;;;1.30;;
19207;SDS011;9737;59.466;18.036;2023-03-30T09:39:07;1.95;;;1.25;;
19207;SDS011;9737;59.466;18.036;2023-03-30T09:41:45;2.22;;;1.55;;
19207;SDS011;9737;59.466;18.036;2023-03-30T09:44:21;2.65;;;1.50;;
19207;SDS011;9737;59.466;18.036;2023-03-30T09:46:56;1.65;;;1.30;;
19207;SDS011;9737;59.466;18.036;2023-03-30T09:49:26;3.50;;;1.60;;
19207;SDS011;9737;59.466;18.036;2023-03-30T09:51:59;2.85;;;1.30;;
19207;SDS011;9737;59.466;18.036;2023-03-30T09:54:35;1.58;;;1.33;;
19207;SDS011;9737;59.466;18.036;2023-03-30T09:57:08;4.47;;;1.30;;
19207;SDS011;9737;59.466;18.036;2023-03-30T09:59:50;1.70;;;1.27;;
19207;SDS011;9737;59.466;18.036;2023-03-30T10:02:22;1.73;;;1.38;;
19207;SDS011;9737;59.466;18.036;2023-03-30T10:04:54;3.33;;;1.50;;
19207;SDS011;9737;59.466;18.036;2023-03-30T10:07:26;1.80;;;1.40;;
19207;SDS011;9737;59.466;18.036;2023-03-30T10:09:57;1.67;;;1.42;;
19207;SDS011;9737;59.466;18.036;2023-03-30T10:12:28;3.17;;;1.50;;
19207;SDS011;9737;59.466;18.036;2023-03-30T10:15:00;1.58;;;1.48;;
19207;SDS011;9737;59.466;18.036;2023-03-30T10:17:29;1.92;;;1.70;;
19207;SDS011;9737;59.466;18.036;2023-03-30T10:20:15;2.38;;;1.55;;
19207;SDS011;9737;59.466;18.036;2023-03-30T10:22:50;1.60;;;1.50;;
19207;SDS011;9737;59.466;18.036;2023-03-30T10:25:20;3.75;;;1.80;;
19207;SDS011;9737;59.466;18.036;2023-03-30T10:27:53;2.13;;;1.70;;
19207;SDS011;9737;59.466;18.036;2023-03-30T10:30:23;2.20;;;1.45;;
19207;SDS011;9737;59.466;18.036;2023-03-30T10:32:55;2.42;;;1.50;;
19207;SDS011;9737;59.466;18.036;2023-03-30T10:35:26;2.83;;;1.65;;
19207;SDS011;9737;59.466;18.036;2023-03-30T10:38:01;1.60;;;1.50;;
19207;SDS011;9737;59.466;18.036;2023-03-30T10:40:32;2.15;;;1.55;;
19207;SDS011;9737;59.466;18.036;2023-03-30T10:43:04;4.85;;;1.40;;
19207;SDS011;9737;59.466;18.036;2023-03-30T10:45:35;2.22;;;1.40;;
19207;SDS011;9737;59.466;18.036;2023-03-30T10:48:14;1.60;;;1.50;;
19207;SDS011;9737;59.466;18.036;2023-03-30T10:51:03;1.65;;;1.48;;
19207;SDS011;9737;59.466;18.036;2023-03-30T10:53:39;1.42;;;1.33;;
19207;SDS011;9737;59.466;18.036;2023-03-30T10:56:17;2.08;;;1.80;;
19207;SDS011;9737;59.466;18.036;2023-03-30T11:01:59;2.92;;;1.52;;
19207;SDS011;9737;59.466;18.036;2023-03-30T11:04:46;3.25;;;2.10;;
19207;SDS011;9737;59.466;18.036;2023-03-30T11:07:20;2.22;;;1.88;;
19207;SDS011;9737;59.466;18.036;2023-03-30T11:09:56;4.25;;;1.50;;
19207;SDS011;9737;59.466;18.036;2023-03-30T11:12:31;1.83;;;1.65;;
19207;SDS011;9737;59.466;18.036;2023-03-30T11:15:05;5.90;;;1.52;;
19207;SDS011;9737;59.466;18.036;2023-03-30T11:17:37;2.55;;;1.50;;
19207;SDS011;9737;59.466;18.036;2023-03-30T11:20:16;3.05;;;1.60;;
19207;SDS011;9737;59.466;18.036;2023-03-30T11:22:50;1.77;;;1.67;;
19207;SDS011;9737;59.466;18.036;2023-03-30T11:25:29;1.77;;;1.60;;
19207;SDS011;9737;59.466;18.036;2023-03-30T11:28:04;2.58;;;1.75;;
19207;SDS011;9737;59.466;18.036;2023-03-30T11:30:41;4.68;;;1.83;;
19207;SDS011;9737;59.466;18.036;2023-03-30T11:33:14;3.08;;;1.85;;
19207;SDS011;9737;59.466;18.036;2023-03-30T11:35:47;2.05;;;1.70;;
19207;SDS011;9737;59.466;18.036;2023-03-30T11:38:20;2.00;;;1.80;;
19207;SDS011;9737;59.466;18.036;2023-03-30T11:40:52;2.15;;;1.95;;
19207;SDS011;9737;59.466;18.036;2023-03-30T11:43:27;2.45;;;1.65;;
19207;SDS011;9737;59.466;18.036;2023-03-30T11:46:00;4.57;;;1.60;;
19207;SDS011;9737;59.466;18.036;2023-03-30T11:48:35;3.65;;;1.88;;
19207;SDS011;9737;59.466;18.036;2023-03-30T11:51:39;3.53;;;1.90;;
19207;SDS011;9737;59.466;18.036;2023-03-30T11:54:21;2.20;;;2.00;;
19207;SDS011;9737;59.466;18.036;2023-03-30T11:57:30;5.75;;;1.83;;
19207;SDS011;9737;59.466;18.036;2023-03-30T12:00:06;1.83;;;1.73;;
19207;SDS011;9737;59.466;18.036;2023-03-30T12:02:56;3.42;;;1.92;;
19207;SDS011;9737;59.466;18.036;2023-03-30T12:05:32;4.13;;;2.10;;
19207;SDS011;9737;59.466;18.036;2023-03-30T12:08:09;2.17;;;1.98;;
19207;SDS011;9737;59.466;18.036;2023-03-30T12:10:50;2.45;;;1.92;;
19207;SDS011;9737;59.466;18.036;2023-03-30T12:13:26;2.20;;;2.00;;
19207;SDS011;9737;59.466;18.036;2023-03-30T12:16:14;3.67;;;1.88;;
19207;SDS011;9737;59.466;18.036;2023-03-30T12:18:49;2.00;;;1.80;;
19207;SDS011;9737;59.466;18.036;2023-03-30T12:21:27;2.75;;;2.15;;
19207;SDS011;9737;59.466;18.036;2023-03-30T12:24:01;2.80;;;2.10;;
19207;SDS011;9737;59.466;18.036;2023-03-30T12:26:39;2.35;;;2.15;;
19207;SDS011;9737;59.466;18.036;2023-03-30T12:29:17;2.45;;;2.05;;
19207;SDS011;9737;59.466;18.036;2023-03-30T12:32:06;2.72;;;2.35;;
19207;SDS011;9737;59.466;18.036;2023-03-30T12:34:47;2.60;;;2.05;;
19207;SDS011;9737;59.466;18.036;2023-03-30T12:37:15;4.03;;;2.30;;
19207;SDS011;9737;59.466;18.036;2023-03-30T12:39:48;4.28;;;2.13;;
19207;SDS011;9737;59.466;18.036;2023-03-30T12:42:23;4.18;;;2.13;;
19207;SDS011;9737;59.466;18.036;2023-03-30T12:45:03;2.15;;;1.90;;
19207;SDS011;9737;59.466;18.036;2023-03-30T12:47:42;2.97;;;2.00;;
19207;SDS011;9737;59.466;18.036;2023-03-30T12:50:30;2.10;;;1.92;;
19207;SDS011;9737;59.466;18.036;2023-03-30T12:53:19;2.00;;;1.90;;
19207;SDS011;9737;59.466;18.036;2023-03-30T12:55:59;4.05;;;2.30;;
19207;SDS011;9737;59.466;18.036;2023-03-30T13:01:35;2.40;;;2.20;;
19207;SDS011;9737;59.466;18.036;2023-03-30T13:04:20;3.53;;;2.08;;
19207;SDS011;9737;59.466;18.036;2023-03-30T13:06:51;3.17;;;2.15;;
19207;SDS011;9737;59.466;18.036;2023-03-30T13:09:30;5.13;;;2.00;;
19207;SDS011;9737;59.466;18.036;2023-03-30T13:12:13;2.25;;;1.98;;
19207;SDS011;9737;59.466;18.036;2023-03-30T13:14:57;3.35;;;2.20;;
19207;SDS011;9737;59.466;18.036;2023-03-30T13:17:27;2.40;;;2.20;;
19207;SDS011;9737;59.466;18.036;2023-03-30T13:20:15;3.30;;;2.28;;
19207;SDS011;9737;59.466;18.036;2023-03-30T13:23:00;3.08;;;2.17;;
19207;SDS011;9737;59.466;18.036;2023-03-30T13:25:51;7.40;;;2.40;;
19207;SDS011;9737;59.466;18.036;2023-03-30T13:28:32;6.45;;;2.30;;
19207;SDS011;9737;59.466;18.036;2023-03-30T13:31:19;5.18;;;2.20;;
19207;SDS011;9737;59.466;18.036;2023-03-30T13:34:00;3.38;;;2.38;;
19207;SDS011;9737;59.466;18.036;2023-03-30T13:36:34;3.50;;;2.20;;
19207;SDS011;9737;59.466;18.036;2023-03-30T13:39:12;5.13;;;2.38;;
19207;SDS011;9737;59.466;18.036;2023-03-30T13:41:49;3.42;;;2.60;;
19207;SDS011;9737;59.466;18.036;2023-03-30T13:44:29;3.67;;;2.25;;
19207;SDS011;9737;59.466;18.036;2023-03-30T13:47:05;3.33;;;2.10;;
19207;SDS011;9737;59.466;18.036;2023-03-30T13:49:43;5.72;;;2.33;;
19207;SDS011;9737;59.466;18.036;2023-03-30T13:52:26;2.65;;;2.20;;
19207;SDS011;9737;59.466;18.036;2023-03-30T13:55:00;2.80;;;2.20;;
19207;SDS011;9737;59.466;18.036;2023-03-30T13:57:30;4.68;;;2.50;;
19207;SDS011;9737;59.466;18.036;2023-03-30T14:00:04;2.40;;;2.20;;
19207;SDS011;9737;59.466;18.036;2023-03-30T14:02:37;2.53;;;2.22;;
19207;SDS011;9737;59.466;18.036;2023-03-30T14:05:10;4.28;;;2.38;;
19207;SDS011;9737;59.466;18.036;2023-03-30T14:07:40;4.95;;;2.25;;
19207;SDS011;9737;59.466;18.036;2023-03-30T14:10:14;3.05;;;2.20;;
19207;SDS011;9737;59.466;18.036;2023-03-30T14:12:46;3.33;;;2.90;;
19207;SDS011;9737;59.466;18.036;2023-03-30T14:15:18;3.25;;;2.33;;
19207;SDS011;9737;59.466;18.036;2023-03-30T14:17:50;6.50;;;2.80;;
19207;SDS011;9737;59.466;18.036;2023-03-30T14:20:25;3.53;;;2.30;;
19207;SDS011;9737;59.466;18.036;2023-03-30T14:23:12;4.25;;;2.50;;
19207;SDS011;9737;59.466;18.036;2023-03-30T14:25:44;2.50;;;2.30;;
19207;SDS011;9737;59.466;18.036;2023-03-30T14:28:13;2.65;;;2.45;;
19207;SDS011;9737;59.466;18.036;2023-03-30T14:30:49;3.03;;;2.40;;
19207;SDS011;9737;59.466;18.036;2023-03-30T14:33:20;3.95;;;2.85;;
19207;SDS011;9737;59.466;18.036;2023-03-30T14:35:50;2.90;;;2.33;;
19207;SDS011;9737;59.466;18.036;2023-03-30T14:38:23;3.72;;;2.45;;
19207;SDS011;9737;59.466;18.036;2023-03-30T14:40:53;3.35;;;2.83;;
19207;SDS011;9737;59.466;18.036;2023-03-30T14:43:23;3.40;;;2.30;;
19207;SDS011;9737;59.466;18.036;2023-03-30T14:45:57;3.25;;;2.50;;
19207;SDS011;9737;59.466;18.036;2023-03-30T14:48:33;6.05;;;2.67;;
19207;SDS011;9737;59.466;18.036;2023-03-30T14:51:05;6.45;;;2.95;;
19207;SDS011;9737;59.466;18.036;2023-03-30T14:53:34;3.25;;;2.70;;
19207;SDS011;9737;59.466;18.036;2023-03-30T14:56:04;4.85;;;2.85;;
19207;SDS011;9737;59.466;18.036;2023-03-30T14:58:34;4.03;;;2.80;;
19207;SDS011;9737;59.466;18.036;2023-03-30T15:01:02;3.72;;;2.75;;
19207;SDS011;9737;59.466;18.036;2023-03-30T15:03:35;5.57;;;3.17;;
19207;SDS011;9737;59.466;18.036;2023-03-30T15:06:05;5.35;;;2.70;;
19207;SDS011;9737;59.466;18.036;2023-03-30T15:08:35;3.25;;;2.80;;
19207;SDS011;9737;59.466;18.036;2023-03-30T15:11:07;4.47;;;2.70;;
19207;SDS011;9737;59.466;18.036;2023-03-30T15:13:42;6.28;;;2.70;;
19207;SDS011;9737;59.466;18.036;2023-03-30T15:16:14;3.63;;;2.78;;
19207;SDS011;9737;59.466;18.036;2023-03-30T15:18:44;3.80;;;3.03;;
19207;SDS011;9737;59.466;18.036;2023-03-30T15:21:13;4.25;;;2.75;;
19207;SDS011;9737;59.466;18.036;2023-03-30T15:23:42;3.20;;;2.60;;
19207;SDS011;9737;59.466;18.036;2023-03-30T15:26:13;6.05;;;2.90;;
19207;SDS011;9737;59.466;18.036;2023-03-30T15:28:42;3.85;;;2.90;;
19207;SDS011;9737;59.466;18.036;2023-03-30T15:31:13;3.70;;;2.65;;
19207;SDS011;9737;59.466;18.036;2023-03-30T15:33:42;4.53;;;2.90;;
19207;SDS011;9737;59.466;18.036;2023-03-30T15:36:13;3.78;;;2.70;;
19207;SDS011;9737;59.466;18.036;2023-03-30T15:38:46;6.68;;;2.80;;
19207;SDS011;9737;59.466;18.036;2023-03-30T15:41:19;3.58;;;2.63;;